createdAt,value
2018-07-27T00:01:31.282Z,52.10
2018-07-27T00:06:27.996Z,52.60
2018-07-27T00:08:56.537Z,52.60
2018-07-27T00:13:53.325Z,52.60
2018-07-27T00:16:21.820Z,52.60
2018-07-27T00:18:52.473Z,52.70
2018-07-27T00:21:21.142Z,52.90
2018-07-27T00:23:49.705Z,52.80
2018-07-27T00:26:18.198Z,53.20
2018-07-27T00:28:46.708Z,52.60
2018-07-27T00:31:15.233Z,52.80
2018-07-27T00:33:43.893Z,53.00
2018-07-27T00:36:12.691Z,53.10
2018-07-27T00:43:53.957Z,53.20
2018-07-27T00:46:22.477Z,53.40
2018-07-27T00:48:50.944Z,53.30
2018-07-27T00:51:19.492Z,53.40
2018-07-27T00:53:48.035Z,53.40
2018-07-27T00:56:16.494Z,53.70
2018-07-27T00:58:45.057Z,53.70
2018-07-27T01:01:13.565Z,53.70
2018-07-27T01:03:42.061Z,53.60
2018-07-27T01:08:39.219Z,53.90
2018-07-27T01:11:08.093Z,54.10
2018-07-27T01:13:36.589Z,54.00
2018-07-27T01:16:05.081Z,54.20
2018-07-27T01:18:33.882Z,54.20
2018-07-27T01:23:30.514Z,54.40
2018-07-27T01:25:59.013Z,54.60
2018-07-27T01:28:27.485Z,54.60
2018-07-27T01:30:56.013Z,54.70
2018-07-27T01:33:24.488Z,54.70
2018-07-27T01:35:52.989Z,54.70
2018-07-27T01:38:21.481Z,54.90
2018-07-27T01:40:50.218Z,55.00
2018-07-27T01:43:18.704Z,55.10
2018-07-27T01:45:47.230Z,55.30
2018-07-27T01:48:15.720Z,55.40
2018-07-27T01:50:44.189Z,55.60
2018-07-27T01:53:12.713Z,55.60
2018-07-27T01:55:41.189Z,55.50
2018-07-27T01:58:09.689Z,55.30
2018-07-27T02:03:06.449Z,56.10
2018-07-27T02:05:34.965Z,56.10
2018-07-27T02:08:03.476Z,56.30
2018-07-27T02:10:31.976Z,56.50
2018-07-27T02:13:00.457Z,56.50
2018-07-27T02:15:28.949Z,56.50
2018-07-27T02:17:57.504Z,57.20
2018-07-27T02:20:26.018Z,56.80
2018-07-27T02:27:50.820Z,57.40
2018-07-27T02:30:19.441Z,57.30
2018-07-27T02:32:47.960Z,57.40
2018-07-27T02:35:16.438Z,57.50
2018-07-27T02:37:44.965Z,57.60
2018-07-27T02:40:13.482Z,57.60
2018-07-27T02:42:42.029Z,57.80
2018-07-27T02:45:10.533Z,58.00
2018-07-27T02:47:39.017Z,58.00
2018-07-27T02:50:07.638Z,58.20
2018-07-27T02:52:36.141Z,58.40
2018-07-27T02:55:04.768Z,58.60
2018-07-27T02:57:33.313Z,58.70
2018-07-27T03:00:01.833Z,58.70
2018-07-27T03:02:30.326Z,58.80
2018-07-27T03:04:58.820Z,58.90
2018-07-27T03:07:27.303Z,59.10
2018-07-27T03:09:56.424Z,59.00
2018-07-27T03:12:25.074Z,59.40
2018-07-27T03:14:53.561Z,59.80
2018-07-27T03:17:22.095Z,59.70
2018-07-27T03:19:50.540Z,60.00
2018-07-27T03:22:19.001Z,60.10
2018-07-27T03:24:47.456Z,60.60
2018-07-27T03:29:44.024Z,61.10
2018-07-27T03:32:12.485Z,61.20
2018-07-27T03:37:09.028Z,61.60
2018-07-27T03:39:37.488Z,61.70
2018-07-27T03:42:05.952Z,61.10
2018-07-27T03:44:34.396Z,62.50
2018-07-27T03:47:02.848Z,62.70
2018-07-27T03:49:31.347Z,63.30
2018-07-27T03:54:27.948Z,63.30
2018-07-27T03:56:56.439Z,63.80
2018-07-27T03:59:25.043Z,63.60
2018-07-27T04:01:53.487Z,63.60
2018-07-27T04:04:21.911Z,63.70
2018-07-27T04:06:50.510Z,64.10
2018-07-27T04:09:18.935Z,63.70
2018-07-27T04:11:47.383Z,64.00
2018-07-27T04:14:15.881Z,64.10
2018-07-27T04:16:44.340Z,64.40
2018-07-27T04:19:12.767Z,65.00
2018-07-27T04:21:41.327Z,65.30
2018-07-27T04:24:09.783Z,65.50
2018-07-27T04:26:38.231Z,65.20
2018-07-27T04:29:06.707Z,66.30
2018-07-27T04:31:35.159Z,66.70
2018-07-27T04:34:03.663Z,66.60
2018-07-27T04:36:32.107Z,66.60
2018-07-27T04:39:00.555Z,66.70
2018-07-27T04:41:28.976Z,67.10
2018-07-27T04:43:57.548Z,67.40
2018-07-27T04:46:25.983Z,68.00
2018-07-27T04:48:54.431Z,67.80
2018-07-27T04:51:22.903Z,68.30
2018-07-27T04:53:51.332Z,69.10
2018-07-27T04:56:19.791Z,68.40
2018-07-27T04:58:48.227Z,68.70
2018-07-27T05:01:16.685Z,68.90
2018-07-27T05:06:13.323Z,69.30
2018-07-27T05:08:47.075Z,69.80
2018-07-27T05:11:15.523Z,69.80
2018-07-27T05:13:44.049Z,70.10
2018-07-27T05:16:12.480Z,71.10
2018-07-27T05:18:40.936Z,70.80
2018-07-27T05:21:09.357Z,70.70
2018-07-27T05:23:37.835Z,70.40
2018-07-27T05:28:34.400Z,70.40
2018-07-27T05:33:30.984Z,71.50
2018-07-27T05:35:59.459Z,71.90
2018-07-27T05:38:27.904Z,72.30
2018-07-27T05:40:56.375Z,73.10
2018-07-27T05:43:24.820Z,73.10
2018-07-27T05:45:53.316Z,73.00
2018-07-27T05:48:21.744Z,72.80
2018-07-27T05:50:50.188Z,73.30
2018-07-27T05:53:18.633Z,73.20
2018-07-27T05:55:47.135Z,73.50
2018-07-27T05:58:15.588Z,73.40
2018-07-27T06:00:44.032Z,73.40
2018-07-27T06:05:40.635Z,73.70
2018-07-27T06:08:09.108Z,74.50
2018-07-27T06:10:37.571Z,74.30
2018-07-27T06:13:06.099Z,74.40
2018-07-27T06:15:34.548Z,74.30
2018-07-27T06:18:03.117Z,74.10
2018-07-27T06:20:31.505Z,74.20
2018-07-27T06:22:59.984Z,74.40
2018-07-27T06:25:28.451Z,75.00
2018-07-27T06:27:56.887Z,74.60
2018-07-27T06:30:25.368Z,74.60
2018-07-27T06:32:53.809Z,74.90
2018-07-27T06:35:22.272Z,74.80
2018-07-27T06:40:18.898Z,76.90
2018-07-27T06:42:47.324Z,76.30
2018-07-27T06:45:15.826Z,77.10
2018-07-27T06:47:44.220Z,77.00
2018-07-27T06:50:12.669Z,77.00
2018-07-27T06:52:41.431Z,78.50
2018-07-27T06:57:38.032Z,79.60
2018-07-27T07:00:06.851Z,79.30
2018-07-27T07:02:35.299Z,79.60
2018-07-27T07:05:03.832Z,79.90
2018-07-27T07:07:32.300Z,79.50
2018-07-27T07:10:01.231Z,79.20
2018-07-27T07:12:29.684Z,78.80
2018-07-27T07:14:58.128Z,81.10
2018-07-27T07:17:26.547Z,81.70
2018-07-27T07:19:55.009Z,82.80
2018-07-27T07:22:23.446Z,83.60
2018-07-27T07:24:51.879Z,81.30
2018-07-27T07:27:20.323Z,82.50
2018-07-27T07:29:48.755Z,81.00
2018-07-27T07:34:45.299Z,81.70
2018-07-27T07:37:13.779Z,81.60
2018-07-27T07:39:42.247Z,82.50
2018-07-27T07:42:10.704Z,80.60
2018-07-27T07:44:39.143Z,80.60
2018-07-27T07:47:07.605Z,83.10
2018-07-27T07:49:36.027Z,82.10
2018-07-27T07:52:04.498Z,81.80
2018-07-27T07:54:32.924Z,81.20
2018-07-27T07:57:01.363Z,82.30
2018-07-27T07:59:29.808Z,81.70
2018-07-27T08:01:58.235Z,80.70
2018-07-27T08:04:26.687Z,81.30
2018-07-27T08:09:23.724Z,79.40
2018-07-27T08:11:52.291Z,80.10
2018-07-27T08:14:20.916Z,77.60
2018-07-27T08:16:49.372Z,78.00
2018-07-27T08:19:17.921Z,77.30
2018-07-27T08:21:46.428Z,78.00
2018-07-27T08:24:14.880Z,78.00
2018-07-27T08:26:48.692Z,77.40
2018-07-27T08:29:18.602Z,75.40
2018-07-27T08:31:48.180Z,75.00
2018-07-27T08:34:17.390Z,75.60
2018-07-27T08:36:46.175Z,76.00
2018-07-27T08:39:16.419Z,75.20
2018-07-27T08:41:45.383Z,75.20
2018-07-27T08:44:16.187Z,74.10
2018-07-27T08:46:44.981Z,73.80
2018-07-27T08:49:13.807Z,73.40
2018-07-27T08:51:42.283Z,72.20
2018-07-27T08:54:10.776Z,72.10
2018-07-27T08:56:39.263Z,73.00
2018-07-27T08:59:07.891Z,71.90
2018-07-27T09:01:36.360Z,70.20
2018-07-27T09:04:04.940Z,70.90
2018-07-27T09:06:33.460Z,71.00
2018-07-27T09:11:30.079Z,67.50
2018-07-27T09:13:58.503Z,68.90
2018-07-27T09:18:55.048Z,68.60
2018-07-27T09:23:51.611Z,69.40
2018-07-27T09:28:48.163Z,67.00
2018-07-27T09:33:44.719Z,66.20
2018-07-27T09:38:41.312Z,64.30
2018-07-27T09:41:09.763Z,64.90
2018-07-27T09:43:38.247Z,64.10
2018-07-27T09:46:07.471Z,64.90
2018-07-27T09:48:35.925Z,63.40
2018-07-27T09:51:04.415Z,63.70
2018-07-27T09:53:32.926Z,63.90
2018-07-27T09:56:01.380Z,62.00
2018-07-27T09:58:29.851Z,62.20
2018-07-27T10:01:03.603Z,60.10
2018-07-27T10:03:32.091Z,62.40
2018-07-27T10:06:00.524Z,61.40
2018-07-27T10:08:28.944Z,59.30
2018-07-27T10:10:57.423Z,59.10
2018-07-27T10:13:25.867Z,60.20
2018-07-27T10:15:54.347Z,59.20
2018-07-27T10:18:22.836Z,57.80
2018-07-27T10:20:51.235Z,57.60
2018-07-27T10:23:19.655Z,57.50
2018-07-27T10:28:16.204Z,54.80
2018-07-27T10:30:44.683Z,54.90
2018-07-27T10:33:13.143Z,54.60
2018-07-27T10:35:41.575Z,52.40
2018-07-27T10:38:10.083Z,52.60
2018-07-27T10:40:38.524Z,51.80
2018-07-27T10:45:35.116Z,52.90
2018-07-27T10:48:03.594Z,50.90
2018-07-27T10:50:32.036Z,49.10
2018-07-27T10:55:28.592Z,47.60
2018-07-27T11:00:25.151Z,44.30
2018-07-27T11:02:53.584Z,45.00
2018-07-27T11:05:22.063Z,44.90
2018-07-27T11:07:50.503Z,44.60
2018-07-27T11:10:18.946Z,44.20
2018-07-27T11:12:47.361Z,42.30
2018-07-27T11:15:15.855Z,43.00
2018-07-27T11:17:44.292Z,43.30
2018-07-27T11:20:12.716Z,41.10
2018-07-27T11:22:41.159Z,40.70
2018-07-27T11:25:09.579Z,40.60
2018-07-27T11:27:38.033Z,40.90
2018-07-27T11:32:34.699Z,40.10
2018-07-27T11:35:03.189Z,39.30
2018-07-27T11:37:31.744Z,39.80
2018-07-27T11:40:00.104Z,39.00
2018-07-27T11:42:28.616Z,37.40
2018-07-27T11:44:57.022Z,36.70
2018-07-27T11:47:25.488Z,35.80
2018-07-27T11:49:53.937Z,35.00
2018-07-27T11:52:22.399Z,36.10
2018-07-27T11:57:19.025Z,37.00
2018-07-27T11:59:47.528Z,37.00
2018-07-27T12:02:15.960Z,37.40
2018-07-27T12:04:44.404Z,37.60
2018-07-27T12:07:12.867Z,37.20
2018-07-27T12:09:41.299Z,37.60
2018-07-27T12:12:09.753Z,37.50
2018-07-27T12:14:38.357Z,37.50
2018-07-27T12:17:06.704Z,36.30
2018-07-27T12:19:35.119Z,37.10
2018-07-27T12:24:31.667Z,36.20
2018-07-27T12:29:28.244Z,31.90
2018-07-27T12:31:56.699Z,28.40
2018-07-27T12:36:53.247Z,27.30
2018-07-27T12:39:21.691Z,27.40
2018-07-27T12:41:50.136Z,26.00
2018-07-27T12:44:18.583Z,25.20
2018-07-27T12:46:47.003Z,23.80
2018-07-27T12:49:15.427Z,22.90
2018-07-27T12:51:43.871Z,22.20
2018-07-27T12:54:12.303Z,22.20
2018-07-27T12:56:40.753Z,21.60
2018-07-27T12:59:09.200Z,21.00
2018-07-27T13:01:37.863Z,20.50
2018-07-27T13:06:34.447Z,20.30
2018-07-27T13:09:03.088Z,18.90
2018-07-27T13:11:31.511Z,18.60
2018-07-27T13:13:59.960Z,18.80
2018-07-27T13:18:56.528Z,18.40
2018-07-27T13:21:24.951Z,18.50
2018-07-27T13:24:00.889Z,18.80
2018-07-27T13:26:29.360Z,18.20
2018-07-27T13:28:57.927Z,18.70
2018-07-27T13:31:45.348Z,19.10
2018-07-27T13:34:52.272Z,18.50
2018-07-27T13:37:22.012Z,19.20
2018-07-27T13:39:51.447Z,19.20
2018-07-27T13:44:53.239Z,20.60
2018-07-27T13:47:21.991Z,22.00
2018-07-27T13:49:50.485Z,21.90
2018-07-27T13:54:47.107Z,21.80
2018-07-27T13:57:15.603Z,21.60
2018-07-27T13:59:44.103Z,22.20
2018-07-27T14:02:13.103Z,22.70
2018-07-27T14:07:10.785Z,24.80
2018-07-27T14:09:39.207Z,25.10
2018-07-27T14:12:07.696Z,25.10
2018-07-27T14:14:36.139Z,25.80
2018-07-27T14:17:04.695Z,26.20
2018-07-27T14:22:01.328Z,26.70
2018-07-27T14:24:29.775Z,26.80
2018-07-27T14:26:58.199Z,27.00
2018-07-27T14:29:26.643Z,28.00
2018-07-27T14:31:55.077Z,27.90
2018-07-27T14:36:51.706Z,27.90
2018-07-27T14:39:20.155Z,28.30
2018-07-27T14:41:48.604Z,28.30
2018-07-27T14:44:17.067Z,28.90
2018-07-27T14:46:45.500Z,28.90
2018-07-27T14:49:15.146Z,29.20
2018-07-27T14:51:43.959Z,29.40
2018-07-27T14:54:13.437Z,30.10
2018-07-27T14:56:42.419Z,30.30
2018-07-27T14:59:11.219Z,31.80
2018-07-27T15:01:40.315Z,31.90
2018-07-27T15:04:09.542Z,31.40
2018-07-27T15:06:38.075Z,30.90
2018-07-27T15:09:09.688Z,30.40
2018-07-27T15:11:38.107Z,31.90
2018-07-27T15:14:06.575Z,30.90
2018-07-27T15:16:35.075Z,31.20
2018-07-27T15:19:03.579Z,31.00
2018-07-27T15:21:32.008Z,32.80
2018-07-27T15:24:00.432Z,31.50
2018-07-27T15:26:29.155Z,32.10
2018-07-27T15:31:25.747Z,30.30
2018-07-27T15:33:54.445Z,30.40
2018-07-27T15:36:22.890Z,31.50
2018-07-27T15:38:51.348Z,30.30
2018-07-27T15:43:47.911Z,30.00
2018-07-27T15:46:16.333Z,30.40
2018-07-27T15:48:44.794Z,30.70
2018-07-27T15:51:13.218Z,29.80
2018-07-27T15:53:41.667Z,30.10
2018-07-27T15:56:10.108Z,30.90
2018-07-27T16:01:06.793Z,31.30
2018-07-27T16:03:35.235Z,31.60
2018-07-27T16:08:31.819Z,32.50
2018-07-27T16:11:00.263Z,33.90
2018-07-27T16:13:28.696Z,34.10
2018-07-27T16:15:57.158Z,34.90
2018-07-27T16:18:25.580Z,33.80
2018-07-27T16:20:54.263Z,34.10
2018-07-27T16:23:22.688Z,34.60
2018-07-27T16:25:51.155Z,34.60
2018-07-27T16:28:19.593Z,34.90
2018-07-27T16:30:48.028Z,35.10
2018-07-27T16:33:16.467Z,35.60
2018-07-27T16:40:41.160Z,36.80
2018-07-27T16:43:09.632Z,37.10
2018-07-27T16:45:38.068Z,37.40
2018-07-27T16:48:06.531Z,37.30
2018-07-27T16:50:35.020Z,38.10
2018-07-27T16:53:03.456Z,38.20
2018-07-27T16:55:31.912Z,38.00
2018-07-27T17:00:28.480Z,38.60
2018-07-27T17:02:56.903Z,38.80
2018-07-27T17:05:26.215Z,39.30
2018-07-27T17:07:54.635Z,39.40
2018-07-27T17:12:51.191Z,39.90
2018-07-27T17:17:48.251Z,40.70
2018-07-27T17:22:44.836Z,41.20
2018-07-27T17:25:13.334Z,40.90
2018-07-27T17:27:41.767Z,40.60
2018-07-27T17:30:10.242Z,40.60
2018-07-27T17:32:38.762Z,41.20
2018-07-27T17:35:07.217Z,41.20
2018-07-27T17:37:36.175Z,40.80
2018-07-27T17:40:05.407Z,40.90
2018-07-27T17:42:33.836Z,40.80
2018-07-27T17:45:02.296Z,41.00
2018-07-27T17:47:30.728Z,40.70
2018-07-27T17:49:59.168Z,40.70
2018-07-27T17:52:27.596Z,40.80
2018-07-27T17:57:24.167Z,41.60
2018-07-27T17:59:52.603Z,41.10
2018-07-27T18:02:21.079Z,41.20
2018-07-27T18:04:49.541Z,41.20
2018-07-27T18:07:18.085Z,41.20
2018-07-27T18:09:46.499Z,41.70
2018-07-27T18:12:15.139Z,41.50
2018-07-27T18:17:11.728Z,41.90
2018-07-27T18:19:40.151Z,41.50
2018-07-27T18:22:08.639Z,41.70
2018-07-27T18:24:37.096Z,41.30
2018-07-27T18:27:06.327Z,41.80
2018-07-27T18:29:34.807Z,41.70
2018-07-27T18:32:03.307Z,42.20
2018-07-27T18:36:59.884Z,42.00
2018-07-27T18:39:28.338Z,42.00
2018-07-27T18:44:24.902Z,42.40
2018-07-27T18:46:53.339Z,42.00
2018-07-27T18:49:21.779Z,42.10
2018-07-27T18:51:50.236Z,41.80
2018-07-27T18:56:46.835Z,41.80
2018-07-27T18:59:15.280Z,42.30
2018-07-27T19:01:43.881Z,42.70
2018-07-27T19:04:12.272Z,42.70
2018-07-27T19:06:40.753Z,42.80
2018-07-27T19:09:11.946Z,42.80
2018-07-27T19:11:40.403Z,42.80
2018-07-27T19:14:09.207Z,42.80
2018-07-27T19:16:37.710Z,43.00
2018-07-27T19:21:34.268Z,43.00
2018-07-27T19:26:30.823Z,42.90
2018-07-27T19:33:55.687Z,42.80
2018-07-27T19:36:24.119Z,43.10
2018-07-27T19:41:20.737Z,43.50
2018-07-27T19:43:49.305Z,43.30
2018-07-27T19:46:17.803Z,43.50
2018-07-27T19:48:46.255Z,43.70
2018-07-27T19:51:14.717Z,44.00
2018-07-27T19:53:43.163Z,43.90
2018-07-27T19:56:11.635Z,43.90
2018-07-27T19:58:40.076Z,44.00
2018-07-27T20:01:08.645Z,44.60
2018-07-27T20:03:37.079Z,45.30
2018-07-27T20:06:05.691Z,44.60
2018-07-27T20:08:34.136Z,45.00
2018-07-27T20:11:02.577Z,45.30
2018-07-27T20:13:31.049Z,45.30
2018-07-27T20:18:27.707Z,45.40
2018-07-27T20:20:56.167Z,45.50
2018-07-27T20:25:52.719Z,45.90
2018-07-27T20:28:21.152Z,46.00
2018-07-27T20:30:49.591Z,46.10
2018-07-27T20:35:46.271Z,46.50
2018-07-27T20:38:14.699Z,46.80
2018-07-27T20:40:43.139Z,47.20
2018-07-27T20:43:11.595Z,47.40
2018-07-27T20:48:08.328Z,48.50
2018-07-27T20:50:36.781Z,48.20
2018-07-27T20:53:05.295Z,48.60
2018-07-27T20:55:33.721Z,48.90
2018-07-27T20:58:02.195Z,49.60
2018-07-27T21:00:30.648Z,50.00
2018-07-27T21:02:59.125Z,50.20
2018-07-27T21:05:27.551Z,50.20
2018-07-27T21:07:56.008Z,51.00
2018-07-27T21:12:52.576Z,51.10
2018-07-27T21:15:21.007Z,51.20
2018-07-27T21:17:49.471Z,51.50
2018-07-27T21:20:17.955Z,51.70
2018-07-27T21:22:46.417Z,51.80
2018-07-27T21:25:14.847Z,52.00
2018-07-27T21:30:11.440Z,52.40
2018-07-27T21:32:39.875Z,52.80
2018-07-27T21:35:08.348Z,53.00
2018-07-27T21:37:36.777Z,52.60
2018-07-27T21:40:05.355Z,52.80
2018-07-27T21:42:33.795Z,52.90
2018-07-27T21:45:02.240Z,53.20
2018-07-27T21:47:30.687Z,53.60
2018-07-27T21:49:59.140Z,53.30
2018-07-27T21:52:27.600Z,53.90
2018-07-27T21:54:56.025Z,54.10
2018-07-27T21:57:24.483Z,54.30
2018-07-27T21:59:52.904Z,54.90
2018-07-27T22:02:21.344Z,54.60
2018-07-27T22:04:49.799Z,55.10
2018-07-27T22:07:18.288Z,55.00
2018-07-27T22:09:46.763Z,55.30
2018-07-27T22:12:15.256Z,55.40
2018-07-27T22:14:43.684Z,55.80
2018-07-27T22:17:12.107Z,56.20
2018-07-27T22:19:40.563Z,56.30
2018-07-27T22:22:09.051Z,56.60
2018-07-27T22:24:37.513Z,56.70
2018-07-27T22:27:06.085Z,56.80
2018-07-27T22:29:34.569Z,56.80
2018-07-27T22:32:03.060Z,57.10
2018-07-27T22:34:31.500Z,57.10
2018-07-27T22:39:28.087Z,57.80
2018-07-27T22:41:56.507Z,58.00
2018-07-27T22:46:53.110Z,58.40
2018-07-27T22:49:21.548Z,58.70
2018-07-27T22:51:50.015Z,59.00
2018-07-27T22:54:18.447Z,58.80
2018-07-27T22:56:46.912Z,58.90
2018-07-27T22:59:15.342Z,59.40
2018-07-27T23:01:43.852Z,59.60
2018-07-27T23:04:12.276Z,60.20
2018-07-27T23:06:40.761Z,60.30
2018-07-27T23:09:10.444Z,60.50
2018-07-27T23:11:38.900Z,61.00
2018-07-27T23:16:35.466Z,62.10
2018-07-27T23:19:03.983Z,62.70
2018-07-27T23:21:32.422Z,63.10
2018-07-27T23:24:00.879Z,63.90
2018-07-27T23:26:29.311Z,64.40
2018-07-27T23:28:57.767Z,64.70
2018-07-27T23:31:26.202Z,65.70
2018-07-27T23:33:54.659Z,66.80
2018-07-27T23:38:51.211Z,66.80
2018-07-27T23:43:47.779Z,67.70
2018-07-27T23:46:16.231Z,67.50
2018-07-27T23:48:44.647Z,68.60
2018-07-27T23:51:13.108Z,69.00
2018-07-27T23:53:41.556Z,69.70
2018-07-27T23:56:10.007Z,70.30
2018-07-27T23:58:38.452Z,70.20
